sensor_id;sensor_type;location;lat;lon;timestamp;P1;durP1;ratioP1;P2;durP2;ratioP2
13834;SDS011;6988;52.614;13.500;2024-03-29T00:03:06;3.50;;;0.60;;
13834;SDS011;6988;52.614;13.500;2024-03-29T00:07:57;3.50;;;0.60;;
13834;SDS011;6988;52.614;13.500;2024-03-29T00:12:49;1.73;;;0.60;;
13834;SDS011;6988;52.614;13.500;2024-03-29T00:17:40;2.43;;;0.70;;
13834;SDS011;6988;52.614;13.500;2024-03-29T00:22:33;4.03;;;0.67;;
13834;SDS011;6988;52.614;13.500;2024-03-29T00:27:24;1.83;;;0.60;;
13834;SDS011;6988;52.614;13.500;2024-03-29T00:32:15;2.00;;;0.70;;
13834;SDS011;6988;52.614;13.500;2024-03-29T00:37:05;2.03;;;0.80;;
13834;SDS011;6988;52.614;13.500;2024-03-29T00:41:58;3.77;;;0.70;;
13834;SDS011;6988;52.614;13.500;2024-03-29T00:46:49;2.10;;;0.63;;
13834;SDS011;6988;52.614;13.500;2024-03-29T00:51:40;3.13;;;0.70;;
13834;SDS011;6988;52.614;13.500;2024-03-29T00:56:31;1.77;;;0.80;;
13834;SDS011;6988;52.614;13.500;2024-03-29T01:01:23;2.83;;;0.50;;
13834;SDS011;6988;52.614;13.500;2024-03-29T01:06:14;2.40;;;0.60;;
13834;SDS011;6988;52.614;13.500;2024-03-29T01:11:05;1.73;;;0.60;;
13834;SDS011;6988;52.614;13.500;2024-03-29T01:15:56;1.40;;;0.80;;
13834;SDS011;6988;52.614;13.500;2024-03-29T01:20:48;2.83;;;0.70;;
13834;SDS011;6988;52.614;13.500;2024-03-29T01:25:39;2.03;;;0.60;;
13834;SDS011;6988;52.614;13.500;2024-03-29T01:30:30;1.87;;;0.70;;
13834;SDS011;6988;52.614;13.500;2024-03-29T01:35:21;2.00;;;0.83;;
13834;SDS011;6988;52.614;13.500;2024-03-29T01:40:13;1.43;;;0.60;;
13834;SDS011;6988;52.614;13.500;2024-03-29T01:45:04;1.23;;;0.60;;
13834;SDS011;6988;52.614;13.500;2024-03-29T01:49:58;4.83;;;0.90;;
13834;SDS011;6988;52.614;13.500;2024-03-29T01:54:50;1.57;;;0.83;;
13834;SDS011;6988;52.614;13.500;2024-03-29T01:59:45;2.00;;;0.93;;
13834;SDS011;6988;52.614;13.500;2024-03-29T02:04:38;2.57;;;0.83;;
13834;SDS011;6988;52.614;13.500;2024-03-29T02:09:30;2.67;;;0.97;;
13834;SDS011;6988;52.614;13.500;2024-03-29T02:14:22;2.30;;;0.90;;
13834;SDS011;6988;52.614;13.500;2024-03-29T02:19:15;2.43;;;1.00;;
13834;SDS011;6988;52.614;13.500;2024-03-29T02:24:09;2.43;;;0.97;;
13834;SDS011;6988;52.614;13.500;2024-03-29T02:29:06;2.20;;;1.50;;
13834;SDS011;6988;52.614;13.500;2024-03-29T02:33:58;3.53;;;1.50;;
13834;SDS011;6988;52.614;13.500;2024-03-29T02:38:50;2.57;;;1.17;;
13834;SDS011;6988;52.614;13.500;2024-03-29T02:43:43;2.40;;;1.27;;
13834;SDS011;6988;52.614;13.500;2024-03-29T02:48:35;2.37;;;1.20;;
13834;SDS011;6988;52.614;13.500;2024-03-29T02:53:27;2.37;;;1.40;;
13834;SDS011;6988;52.614;13.500;2024-03-29T02:58:19;1.67;;;1.17;;
13834;SDS011;6988;52.614;13.500;2024-03-29T03:03:13;3.00;;;1.50;;
13834;SDS011;6988;52.614;13.500;2024-03-29T03:08:07;3.03;;;1.40;;
13834;SDS011;6988;52.614;13.500;2024-03-29T03:13:17;2.77;;;1.40;;
13834;SDS011;6988;52.614;13.500;2024-03-29T03:18:09;2.40;;;1.30;;
13834;SDS011;6988;52.614;13.500;2024-03-29T03:23:02;5.40;;;1.50;;
13834;SDS011;6988;52.614;13.500;2024-03-29T03:27:55;2.73;;;1.47;;
13834;SDS011;6988;52.614;13.500;2024-03-29T03:32:46;4.73;;;1.53;;
13834;SDS011;6988;52.614;13.500;2024-03-29T03:37:39;3.00;;;1.50;;
13834;SDS011;6988;52.614;13.500;2024-03-29T03:42:32;3.00;;;1.50;;
13834;SDS011;6988;52.614;13.500;2024-03-29T03:47:24;2.30;;;1.60;;
13834;SDS011;6988;52.614;13.500;2024-03-29T03:52:16;3.60;;;1.70;;
13834;SDS011;6988;52.614;13.500;2024-03-29T03:57:07;4.53;;;1.70;;
13834;SDS011;6988;52.614;13.500;2024-03-29T04:02:01;3.80;;;1.60;;
13834;SDS011;6988;52.614;13.500;2024-03-29T04:06:53;5.63;;;2.00;;
13834;SDS011;6988;52.614;13.500;2024-03-29T04:11:45;3.83;;;1.67;;
13834;SDS011;6988;52.614;13.500;2024-03-29T04:16:37;2.50;;;1.40;;
13834;SDS011;6988;52.614;13.500;2024-03-29T04:21:30;5.30;;;1.63;;
13834;SDS011;6988;52.614;13.500;2024-03-29T04:26:21;3.53;;;1.40;;
13834;SDS011;6988;52.614;13.500;2024-03-29T04:31:13;2.80;;;1.23;;
13834;SDS011;6988;52.614;13.500;2024-03-29T04:36:06;2.50;;;1.30;;
13834;SDS011;6988;52.614;13.500;2024-03-29T04:40:59;3.53;;;1.20;;
13834;SDS011;6988;52.614;13.500;2024-03-29T04:46:01;2.00;;;1.30;;
13834;SDS011;6988;52.614;13.500;2024-03-29T04:50:55;2.97;;;1.00;;
13834;SDS011;6988;52.614;13.500;2024-03-29T04:55:48;2.97;;;1.40;;
13834;SDS011;6988;52.614;13.500;2024-03-29T05:00:47;4.40;;;1.20;;
13834;SDS011;6988;52.614;13.500;2024-03-29T05:05:40;1.90;;;1.20;;
13834;SDS011;6988;52.614;13.500;2024-03-29T05:10:31;2.57;;;1.20;;
13834;SDS011;6988;52.614;13.500;2024-03-29T05:15:24;3.30;;;1.30;;
13834;SDS011;6988;52.614;13.500;2024-03-29T05:20:18;3.57;;;1.50;;
13834;SDS011;6988;52.614;13.500;2024-03-29T05:25:10;2.10;;;1.37;;
13834;SDS011;6988;52.614;13.500;2024-03-29T05:30:02;2.07;;;1.10;;
13834;SDS011;6988;52.614;13.500;2024-03-29T05:34:54;2.23;;;1.00;;
13834;SDS011;6988;52.614;13.500;2024-03-29T05:39:47;1.77;;;0.97;;
13834;SDS011;6988;52.614;13.500;2024-03-29T05:44:39;2.60;;;1.17;;
13834;SDS011;6988;52.614;13.500;2024-03-29T05:49:31;5.57;;;1.30;;
13834;SDS011;6988;52.614;13.500;2024-03-29T05:54:23;2.67;;;1.37;;
13834;SDS011;6988;52.614;13.500;2024-03-29T05:59:16;2.83;;;1.10;;
13834;SDS011;6988;52.614;13.500;2024-03-29T06:04:08;2.43;;;1.00;;
13834;SDS011;6988;52.614;13.500;2024-03-29T06:09:05;1.87;;;1.03;;
13834;SDS011;6988;52.614;13.500;2024-03-29T06:13:57;2.80;;;1.20;;
13834;SDS011;6988;52.614;13.500;2024-03-29T06:19:08;3.43;;;1.00;;
13834;SDS011;6988;52.614;13.500;2024-03-29T06:24:00;3.07;;;1.10;;
13834;SDS011;6988;52.614;13.500;2024-03-29T06:28:51;3.53;;;1.13;;
13834;SDS011;6988;52.614;13.500;2024-03-29T06:33:43;4.13;;;1.20;;
13834;SDS011;6988;52.614;13.500;2024-03-29T06:38:36;3.83;;;1.20;;
13834;SDS011;6988;52.614;13.500;2024-03-29T06:43:28;2.23;;;1.00;;
13834;SDS011;6988;52.614;13.500;2024-03-29T06:48:19;1.83;;;0.90;;
13834;SDS011;6988;52.614;13.500;2024-03-29T06:53:11;2.97;;;0.97;;
13834;SDS011;6988;52.614;13.500;2024-03-29T06:58:04;2.77;;;0.93;;
13834;SDS011;6988;52.614;13.500;2024-03-29T07:02:56;1.60;;;0.90;;
13834;SDS011;6988;52.614;13.500;2024-03-29T07:07:48;1.73;;;0.90;;
13834;SDS011;6988;52.614;13.500;2024-03-29T07:12:40;1.57;;;1.00;;
13834;SDS011;6988;52.614;13.500;2024-03-29T07:17:33;3.87;;;1.10;;
13834;SDS011;6988;52.614;13.500;2024-03-29T07:22:25;1.73;;;0.80;;
13834;SDS011;6988;52.614;13.500;2024-03-29T07:27:17;3.07;;;0.93;;
13834;SDS011;6988;52.614;13.500;2024-03-29T07:32:10;2.83;;;1.00;;
13834;SDS011;6988;52.614;13.500;2024-03-29T07:37:03;2.50;;;0.70;;
13834;SDS011;6988;52.614;13.500;2024-03-29T07:41:55;2.27;;;0.90;;
13834;SDS011;6988;52.614;13.500;2024-03-29T07:46:47;2.53;;;0.70;;
13834;SDS011;6988;52.614;13.500;2024-03-29T07:51:38;2.60;;;0.80;;
13834;SDS011;6988;52.614;13.500;2024-03-29T07:56:31;4.97;;;1.20;;
13834;SDS011;6988;52.614;13.500;2024-03-29T08:01:23;2.27;;;0.93;;
13834;SDS011;6988;52.614;13.500;2024-03-29T08:06:15;1.67;;;1.00;;
13834;SDS011;6988;52.614;13.500;2024-03-29T08:11:09;3.40;;;0.90;;
13834;SDS011;6988;52.614;13.500;2024-03-29T08:16:03;2.17;;;0.73;;
13834;SDS011;6988;52.614;13.500;2024-03-29T08:20:55;2.33;;;0.90;;
13834;SDS011;6988;52.614;13.500;2024-03-29T08:25:48;1.33;;;0.70;;
13834;SDS011;6988;52.614;13.500;2024-03-29T08:30:41;2.60;;;0.90;;
13834;SDS011;6988;52.614;13.500;2024-03-29T08:35:34;2.33;;;0.80;;
13834;SDS011;6988;52.614;13.500;2024-03-29T08:40:27;1.33;;;0.80;;
13834;SDS011;6988;52.614;13.500;2024-03-29T08:45:22;4.63;;;0.87;;
13834;SDS011;6988;52.614;13.500;2024-03-29T08:50:14;4.17;;;0.80;;
13834;SDS011;6988;52.614;13.500;2024-03-29T08:55:07;2.43;;;0.73;;
13834;SDS011;6988;52.614;13.500;2024-03-29T09:00:00;4.17;;;0.80;;
13834;SDS011;6988;52.614;13.500;2024-03-29T09:04:53;2.40;;;0.90;;
13834;SDS011;6988;52.614;13.500;2024-03-29T09:09:45;3.23;;;1.00;;
13834;SDS011;6988;52.614;13.500;2024-03-29T09:14:38;2.97;;;0.70;;
13834;SDS011;6988;52.614;13.500;2024-03-29T09:19:30;1.67;;;0.70;;
13834;SDS011;6988;52.614;13.500;2024-03-29T09:24:22;1.93;;;0.90;;
13834;SDS011;6988;52.614;13.500;2024-03-29T09:29:15;1.90;;;0.90;;
13834;SDS011;6988;52.614;13.500;2024-03-29T09:34:10;2.70;;;0.80;;
13834;SDS011;6988;52.614;13.500;2024-03-29T09:39:02;3.80;;;1.20;;
13834;SDS011;6988;52.614;13.500;2024-03-29T09:43:54;2.27;;;0.83;;
13834;SDS011;6988;52.614;13.500;2024-03-29T09:48:53;3.00;;;0.90;;
13834;SDS011;6988;52.614;13.500;2024-03-29T09:53:48;1.63;;;0.90;;
13834;SDS011;6988;52.614;13.500;2024-03-29T09:58:40;1.43;;;0.80;;
13834;SDS011;6988;52.614;13.500;2024-03-29T10:03:38;1.07;;;0.67;;
13834;SDS011;6988;52.614;13.500;2024-03-29T10:08:32;2.20;;;0.70;;
13834;SDS011;6988;52.614;13.500;2024-03-29T10:13:25;2.93;;;0.80;;
13834;SDS011;6988;52.614;13.500;2024-03-29T10:18:17;2.63;;;0.93;;
13834;SDS011;6988;52.614;13.500;2024-03-29T10:23:10;4.30;;;1.10;;
13834;SDS011;6988;52.614;13.500;2024-03-29T10:28:02;2.63;;;0.90;;
13834;SDS011;6988;52.614;13.500;2024-03-29T10:32:56;3.37;;;0.90;;
13834;SDS011;6988;52.614;13.500;2024-03-29T10:37:48;1.70;;;1.20;;
13834;SDS011;6988;52.614;13.500;2024-03-29T10:42:40;1.03;;;0.67;;
13834;SDS011;6988;52.614;13.500;2024-03-29T10:47:33;1.93;;;0.80;;
13834;SDS011;6988;52.614;13.500;2024-03-29T10:52:26;3.50;;;1.00;;
13834;SDS011;6988;52.614;13.500;2024-03-29T10:57:20;2.07;;;0.80;;
13834;SDS011;6988;52.614;13.500;2024-03-29T11:02:17;2.43;;;0.70;;
13834;SDS011;6988;52.614;13.500;2024-03-29T11:07:22;1.97;;;0.60;;
13834;SDS011;6988;52.614;13.500;2024-03-29T11:12:15;4.00;;;0.90;;
13834;SDS011;6988;52.614;13.500;2024-03-29T11:17:10;1.63;;;0.63;;
13834;SDS011;6988;52.614;13.500;2024-03-29T11:22:04;1.30;;;0.57;;
13834;SDS011;6988;52.614;13.500;2024-03-29T11:26:56;2.10;;;0.80;;
13834;SDS011;6988;52.614;13.500;2024-03-29T11:31:57;1.03;;;0.70;;
13834;SDS011;6988;52.614;13.500;2024-03-29T11:36:49;3.33;;;0.97;;
13834;SDS011;6988;52.614;13.500;2024-03-29T11:41:45;1.37;;;0.80;;
13834;SDS011;6988;52.614;13.500;2024-03-29T11:46:38;2.93;;;1.30;;
13834;SDS011;6988;52.614;13.500;2024-03-29T11:51:32;2.57;;;0.80;;
13834;SDS011;6988;52.614;13.500;2024-03-29T11:56:25;1.93;;;0.70;;
13834;SDS011;6988;52.614;13.500;2024-03-29T12:01:16;2.47;;;0.80;;
13834;SDS011;6988;52.614;13.500;2024-03-29T12:06:09;1.40;;;0.67;;
13834;SDS011;6988;52.614;13.500;2024-03-29T12:11:03;1.87;;;0.70;;
13834;SDS011;6988;52.614;13.500;2024-03-29T12:15:56;1.20;;;0.67;;
13834;SDS011;6988;52.614;13.500;2024-03-29T12:20:48;2.30;;;0.77;;
13834;SDS011;6988;52.614;13.500;2024-03-29T12:25:42;1.00;;;0.80;;
13834;SDS011;6988;52.614;13.500;2024-03-29T12:30:36;1.20;;;0.50;;
13834;SDS011;6988;52.614;13.500;2024-03-29T12:35:31;2.07;;;0.83;;
13834;SDS011;6988;52.614;13.500;2024-03-29T12:40:23;0.90;;;0.60;;
13834;SDS011;6988;52.614;13.500;2024-03-29T12:45:18;2.00;;;0.80;;
13834;SDS011;6988;52.614;13.500;2024-03-29T12:50:13;1.07;;;0.60;;
13834;SDS011;6988;52.614;13.500;2024-03-29T12:55:16;1.70;;;0.60;;
13834;SDS011;6988;52.614;13.500;2024-03-29T13:00:09;1.00;;;0.60;;
13834;SDS011;6988;52.614;13.500;2024-03-29T13:05:03;1.20;;;0.60;;
13834;SDS011;6988;52.614;13.500;2024-03-29T13:09:57;1.03;;;0.60;;
13834;SDS011;6988;52.614;13.500;2024-03-29T13:14:52;1.00;;;0.57;;
13834;SDS011;6988;52.614;13.500;2024-03-29T13:19:44;1.47;;;0.57;;
13834;SDS011;6988;52.614;13.500;2024-03-29T13:24:36;1.80;;;0.70;;
13834;SDS011;6988;52.614;13.500;2024-03-29T13:29:29;2.27;;;0.70;;
13834;SDS011;6988;52.614;13.500;2024-03-29T13:34:21;2.00;;;0.70;;
13834;SDS011;6988;52.614;13.500;2024-03-29T13:39:13;2.30;;;0.80;;
13834;SDS011;6988;52.614;13.500;2024-03-29T13:44:06;1.80;;;0.77;;
13834;SDS011;6988;52.614;13.500;2024-03-29T13:48:59;1.90;;;1.00;;
13834;SDS011;6988;52.614;13.500;2024-03-29T13:53:51;4.03;;;1.10;;
13834;SDS011;6988;52.614;13.500;2024-03-29T13:58:44;2.20;;;0.83;;
13834;SDS011;6988;52.614;13.500;2024-03-29T14:03:35;2.40;;;1.10;;
13834;SDS011;6988;52.614;13.500;2024-03-29T14:08:28;2.20;;;0.90;;
13834;SDS011;6988;52.614;13.500;2024-03-29T14:13:20;1.67;;;1.20;;
13834;SDS011;6988;52.614;13.500;2024-03-29T14:18:12;2.03;;;0.83;;
13834;SDS011;6988;52.614;13.500;2024-03-29T14:23:04;2.23;;;0.80;;
13834;SDS011;6988;52.614;13.500;2024-03-29T14:27:59;1.30;;;0.73;;
13834;SDS011;6988;52.614;13.500;2024-03-29T14:32:53;3.07;;;1.03;;
13834;SDS011;6988;52.614;13.500;2024-03-29T14:37:46;0.77;;;0.50;;
13834;SDS011;6988;52.614;13.500;2024-03-29T14:42:38;1.90;;;0.80;;
13834;SDS011;6988;52.614;13.500;2024-03-29T14:47:31;1.60;;;0.70;;
13834;SDS011;6988;52.614;13.500;2024-03-29T14:52:23;2.20;;;0.53;;
13834;SDS011;6988;52.614;13.500;2024-03-29T14:57:14;1.40;;;0.70;;
13834;SDS011;6988;52.614;13.500;2024-03-29T15:02:08;1.80;;;0.90;;
13834;SDS011;6988;52.614;13.500;2024-03-29T15:07:02;2.30;;;0.70;;
13834;SDS011;6988;52.614;13.500;2024-03-29T15:11:55;0.97;;;0.50;;
13834;SDS011;6988;52.614;13.500;2024-03-29T15:16:47;2.00;;;0.50;;
13834;SDS011;6988;52.614;13.500;2024-03-29T15:21:40;1.50;;;0.77;;
13834;SDS011;6988;52.614;13.500;2024-03-29T15:26:34;1.00;;;0.70;;
13834;SDS011;6988;52.614;13.500;2024-03-29T15:31:26;1.53;;;0.77;;
13834;SDS011;6988;52.614;13.500;2024-03-29T15:36:18;2.07;;;0.90;;
13834;SDS011;6988;52.614;13.500;2024-03-29T15:41:12;2.20;;;0.70;;
13834;SDS011;6988;52.614;13.500;2024-03-29T15:46:05;1.70;;;0.60;;
13834;SDS011;6988;52.614;13.500;2024-03-29T15:50:57;1.63;;;0.70;;
13834;SDS011;6988;52.614;13.500;2024-03-29T15:55:48;1.83;;;0.70;;
13834;SDS011;6988;52.614;13.500;2024-03-29T16:00:41;2.10;;;1.27;;
13834;SDS011;6988;52.614;13.500;2024-03-29T16:05:35;2.90;;;0.97;;
13834;SDS011;6988;52.614;13.500;2024-03-29T16:10:27;2.10;;;1.10;;
13834;SDS011;6988;52.614;13.500;2024-03-29T16:15:18;2.20;;;1.07;;
13834;SDS011;6988;52.614;13.500;2024-03-29T16:20:10;1.83;;;0.60;;
13834;SDS011;6988;52.614;13.500;2024-03-29T16:25:04;1.43;;;0.60;;
13834;SDS011;6988;52.614;13.500;2024-03-29T16:29:56;1.00;;;0.70;;
13834;SDS011;6988;52.614;13.500;2024-03-29T16:34:48;2.33;;;0.80;;
13834;SDS011;6988;52.614;13.500;2024-03-29T16:39:40;4.60;;;3.20;;
13834;SDS011;6988;52.614;13.500;2024-03-29T16:44:34;4.00;;;1.63;;
13834;SDS011;6988;52.614;13.500;2024-03-29T16:49:25;2.93;;;0.93;;
13834;SDS011;6988;52.614;13.500;2024-03-29T16:54:17;1.40;;;0.93;;
13834;SDS011;6988;52.614;13.500;2024-03-29T16:59:09;2.23;;;1.30;;
13834;SDS011;6988;52.614;13.500;2024-03-29T17:04:02;3.03;;;1.70;;
13834;SDS011;6988;52.614;13.500;2024-03-29T17:08:54;2.00;;;1.00;;
13834;SDS011;6988;52.614;13.500;2024-03-29T17:13:46;1.80;;;0.97;;
13834;SDS011;6988;52.614;13.500;2024-03-29T17:18:38;2.03;;;1.10;;
13834;SDS011;6988;52.614;13.500;2024-03-29T17:23:31;1.87;;;1.43;;
13834;SDS011;6988;52.614;13.500;2024-03-29T17:28:22;2.13;;;1.30;;
13834;SDS011;6988;52.614;13.500;2024-03-29T17:33:14;5.87;;;1.60;;
13834;SDS011;6988;52.614;13.500;2024-03-29T17:38:06;2.00;;;1.20;;
13834;SDS011;6988;52.614;13.500;2024-03-29T17:42:59;1.67;;;1.00;;
13834;SDS011;6988;52.614;13.500;2024-03-29T17:47:51;2.47;;;1.10;;
13834;SDS011;6988;52.614;13.500;2024-03-29T17:52:43;2.43;;;0.93;;
13834;SDS011;6988;52.614;13.500;2024-03-29T17:57:34;2.87;;;1.20;;
13834;SDS011;6988;52.614;13.500;2024-03-29T18:02:27;2.50;;;1.80;;
13834;SDS011;6988;52.614;13.500;2024-03-29T18:07:19;3.30;;;2.10;;
13834;SDS011;6988;52.614;13.500;2024-03-29T18:12:11;5.67;;;3.93;;
13834;SDS011;6988;52.614;13.500;2024-03-29T18:17:03;2.30;;;1.70;;
13834;SDS011;6988;52.614;13.500;2024-03-29T18:21:56;1.73;;;1.40;;
13834;SDS011;6988;52.614;13.500;2024-03-29T18:26:48;9.80;;;6.33;;
13834;SDS011;6988;52.614;13.500;2024-03-29T18:31:39;3.50;;;1.70;;
13834;SDS011;6988;52.614;13.500;2024-03-29T18:36:31;2.27;;;1.50;;
13834;SDS011;6988;52.614;13.500;2024-03-29T18:41:24;3.53;;;2.27;;
13834;SDS011;6988;52.614;13.500;2024-03-29T18:46:19;4.33;;;2.27;;
13834;SDS011;6988;52.614;13.500;2024-03-29T18:51:10;3.80;;;1.80;;
13834;SDS011;6988;52.614;13.500;2024-03-29T18:56:02;2.73;;;1.70;;
13834;SDS011;6988;52.614;13.500;2024-03-29T19:00:56;2.43;;;1.20;;
13834;SDS011;6988;52.614;13.500;2024-03-29T19:05:48;1.83;;;1.10;;
13834;SDS011;6988;52.614;13.500;2024-03-29T19:10:40;1.83;;;1.33;;
13834;SDS011;6988;52.614;13.500;2024-03-29T19:15:32;2.17;;;1.20;;
13834;SDS011;6988;52.614;13.500;2024-03-29T19:20:25;1.40;;;1.00;;
13834;SDS011;6988;52.614;13.500;2024-03-29T19:25:17;2.20;;;1.10;;
13834;SDS011;6988;52.614;13.500;2024-03-29T19:30:09;2.80;;;1.30;;
13834;SDS011;6988;52.614;13.500;2024-03-29T19:35:02;2.03;;;1.40;;
13834;SDS011;6988;52.614;13.500;2024-03-29T19:39:56;2.13;;;1.40;;
13834;SDS011;6988;52.614;13.500;2024-03-29T19:44:48;2.33;;;1.60;;
13834;SDS011;6988;52.614;13.500;2024-03-29T19:49:40;2.90;;;1.93;;
13834;SDS011;6988;52.614;13.500;2024-03-29T19:54:32;3.10;;;2.20;;
13834;SDS011;6988;52.614;13.500;2024-03-29T19:59:25;5.67;;;2.50;;
13834;SDS011;6988;52.614;13.500;2024-03-29T20:04:16;2.90;;;2.03;;
13834;SDS011;6988;52.614;13.500;2024-03-29T20:09:08;3.03;;;1.80;;
13834;SDS011;6988;52.614;13.500;2024-03-29T20:14:00;2.30;;;1.70;;
13834;SDS011;6988;52.614;13.500;2024-03-29T20:18:53;2.53;;;1.80;;
13834;SDS011;6988;52.614;13.500;2024-03-29T20:23:49;3.03;;;1.90;;
13834;SDS011;6988;52.614;13.500;2024-03-29T20:28:41;2.73;;;1.40;;
13834;SDS011;6988;52.614;13.500;2024-03-29T20:33:32;4.13;;;1.77;;
13834;SDS011;6988;52.614;13.500;2024-03-29T20:38:25;2.47;;;1.80;;
13834;SDS011;6988;52.614;13.500;2024-03-29T20:43:17;2.30;;;1.70;;
13834;SDS011;6988;52.614;13.500;2024-03-29T20:48:09;1.83;;;1.40;;
13834;SDS011;6988;52.614;13.500;2024-03-29T20:53:01;2.00;;;1.53;;
13834;SDS011;6988;52.614;13.500;2024-03-29T20:57:54;3.67;;;1.80;;
13834;SDS011;6988;52.614;13.500;2024-03-29T21:02:46;2.20;;;1.40;;
13834;SDS011;6988;52.614;13.500;2024-03-29T21:07:55;2.60;;;1.47;;
13834;SDS011;6988;52.614;13.500;2024-03-29T21:12:48;3.90;;;1.80;;
13834;SDS011;6988;52.614;13.500;2024-03-29T21:17:41;2.40;;;1.50;;
13834;SDS011;6988;52.614;13.500;2024-03-29T21:22:32;2.67;;;1.67;;
13834;SDS011;6988;52.614;13.500;2024-03-29T21:27:26;2.10;;;1.50;;
13834;SDS011;6988;52.614;13.500;2024-03-29T21:32:18;2.80;;;1.60;;
13834;SDS011;6988;52.614;13.500;2024-03-29T21:37:11;2.90;;;1.63;;
13834;SDS011;6988;52.614;13.500;2024-03-29T21:42:03;2.50;;;2.00;;
13834;SDS011;6988;52.614;13.500;2024-03-29T21:46:56;6.77;;;3.53;;
13834;SDS011;6988;52.614;13.500;2024-03-29T21:51:48;5.50;;;3.40;;
13834;SDS011;6988;52.614;13.500;2024-03-29T21:56:41;4.47;;;3.33;;
13834;SDS011;6988;52.614;13.500;2024-03-29T22:01:33;5.90;;;4.13;;
13834;SDS011;6988;52.614;13.500;2024-03-29T22:06:27;5.63;;;2.80;;
13834;SDS011;6988;52.614;13.500;2024-03-29T22:11:20;4.67;;;2.33;;
13834;SDS011;6988;52.614;13.500;2024-03-29T22:16:13;2.30;;;1.77;;
13834;SDS011;6988;52.614;13.500;2024-03-29T22:21:05;2.57;;;1.90;;
13834;SDS011;6988;52.614;13.500;2024-03-29T22:25:57;2.77;;;1.90;;
13834;SDS011;6988;52.614;13.500;2024-03-29T22:30:49;3.13;;;2.00;;
13834;SDS011;6988;52.614;13.500;2024-03-29T22:35:42;2.67;;;2.20;;
13834;SDS011;6988;52.614;13.500;2024-03-29T22:40:33;3.20;;;2.23;;
13834;SDS011;6988;52.614;13.500;2024-03-29T22:45:25;4.10;;;2.20;;
13834;SDS011;6988;52.614;13.500;2024-03-29T23:04:03;3.07;;;2.20;;
13834;SDS011;6988;52.614;13.500;2024-03-29T23:08:55;3.50;;;2.93;;
13834;SDS011;6988;52.614;13.500;2024-03-29T23:13:46;4.57;;;2.87;;
13834;SDS011;6988;52.614;13.500;2024-03-29T23:18:38;3.73;;;3.10;;
13834;SDS011;6988;52.614;13.500;2024-03-29T23:23:31;3.63;;;2.80;;
13834;SDS011;6988;52.614;13.500;2024-03-29T23:28:23;3.03;;;2.70;;
13834;SDS011;6988;52.614;13.500;2024-03-29T23:33:15;4.40;;;3.50;;
13834;SDS011;6988;52.614;13.500;2024-03-29T23:38:07;4.17;;;3.70;;
13834;SDS011;6988;52.614;13.500;2024-03-29T23:43:00;4.87;;;4.13;;
13834;SDS011;6988;52.614;13.500;2024-03-29T23:47:53;6.87;;;4.50;;
13834;SDS011;6988;52.614;13.500;2024-03-29T23:52:45;6.33;;;4.70;;
13834;SDS011;6988;52.614;13.500;2024-03-29T23:57:37;8.27;;;5.37;;
